createdAt,value
2022-10-31T00:01:37.598Z,11.73
2022-10-31T00:04:25.682Z,11.83
2022-10-31T00:07:13.797Z,11.72
2022-10-31T00:10:01.817Z,11.62
2022-10-31T00:12:49.842Z,11.62
2022-10-31T00:15:41.515Z,11.62
2022-10-31T00:18:29.675Z,11.67
2022-10-31T00:21:17.734Z,11.63
2022-10-31T00:24:06.516Z,11.47
2022-10-31T00:26:54.416Z,11.52
2022-10-31T00:29:42.449Z,11.45
2022-10-31T00:32:31.481Z,11.54
2022-10-31T00:35:19.261Z,11.56
2022-10-31T00:38:07.360Z,11.19
2022-10-31T00:40:55.541Z,11.21
2022-10-31T00:43:44.529Z,11.14
2022-10-31T00:46:32.674Z,11.10
2022-10-31T00:49:20.657Z,11.28
2022-10-31T00:52:08.854Z,11.10
2022-10-31T00:54:56.893Z,11.21
2022-10-31T00:57:48.787Z,11.19
2022-10-31T01:00:36.633Z,11.27
2022-10-31T01:03:27.925Z,11.12
2022-10-31T01:06:17.043Z,11.07
2022-10-31T01:09:05.239Z,11.20
2022-10-31T01:11:53.310Z,11.31
2022-10-31T01:14:47.250Z,11.38
2022-10-31T01:17:35.891Z,11.51
2022-10-31T01:20:23.813Z,11.59
2022-10-31T01:23:11.942Z,11.24
2022-10-31T01:26:07.602Z,11.41
2022-10-31T01:28:59.286Z,11.51
2022-10-31T01:31:47.321Z,11.45
2022-10-31T01:34:35.956Z,11.41
2022-10-31T01:37:24.102Z,11.49
2022-10-31T01:40:12.166Z,11.40
2022-10-31T01:43:00.411Z,11.41
2022-10-31T01:45:55.203Z,11.42
2022-10-31T01:48:43.547Z,11.40
2022-10-31T01:51:36.896Z,11.31
2022-10-31T01:54:38.920Z,10.97
2022-10-31T01:57:27.711Z,10.96
2022-10-31T02:00:16.322Z,11.10
2022-10-31T02:03:04.632Z,11.18
2022-10-31T02:05:56.080Z,10.91
2022-10-31T02:08:44.848Z,10.88
2022-10-31T02:11:34.402Z,10.95
2022-10-31T02:14:29.385Z,10.99
2022-10-31T02:17:17.669Z,10.85
2022-10-31T02:20:17.107Z,10.68
2022-10-31T02:23:33.509Z,10.71
2022-10-31T02:26:39.197Z,10.77
2022-10-31T02:29:51.278Z,10.72
2022-10-31T02:33:05.587Z,10.68
2022-10-31T02:36:25.854Z,10.87
2022-10-31T02:39:21.890Z,11.04
2022-10-31T02:42:41.063Z,11.07
2022-10-31T02:46:03.525Z,11.10
2022-10-31T02:48:56.459Z,11.19
2022-10-31T02:51:45.251Z,11.32
2022-10-31T02:54:33.572Z,11.27
2022-10-31T02:57:33.484Z,11.33
2022-10-31T03:00:21.688Z,11.05
2022-10-31T03:03:46.123Z,11.13
2022-10-31T03:06:58.120Z,11.21
2022-10-31T03:09:57.381Z,11.04
2022-10-31T03:13:10.810Z,11.10
2022-10-31T03:16:25.109Z,11.05
2022-10-31T03:19:20.738Z,10.89
2022-10-31T03:22:18.199Z,10.65
2022-10-31T03:25:07.188Z,10.64
2022-10-31T03:27:56.333Z,10.61
2022-10-31T03:30:46.721Z,10.79
2022-10-31T03:33:40.140Z,11.05
2022-10-31T03:36:31.174Z,10.98
2022-10-31T03:39:22.249Z,11.04
2022-10-31T03:42:19.799Z,11.07
2022-10-31T03:45:14.291Z,10.99
2022-10-31T03:48:02.945Z,10.93
2022-10-31T03:51:17.576Z,11.10
2022-10-31T03:54:47.656Z,11.11
2022-10-31T03:57:47.047Z,11.10
2022-10-31T04:00:41.985Z,11.01
2022-10-31T04:03:37.224Z,10.93
2022-10-31T04:06:26.341Z,10.85
2022-10-31T04:09:15.267Z,10.67
2022-10-31T04:12:09.970Z,10.55
2022-10-31T04:14:58.637Z,10.58
2022-10-31T04:17:50.737Z,10.55
2022-10-31T04:20:41.905Z,10.46
2022-10-31T04:23:30.652Z,10.48
2022-10-31T04:26:18.620Z,10.53
2022-10-31T04:29:06.628Z,10.51
2022-10-31T04:31:54.635Z,10.59
2022-10-31T04:34:42.622Z,10.75
2022-10-31T04:37:30.684Z,10.56
2022-10-31T04:40:18.755Z,10.73
2022-10-31T04:43:06.689Z,10.65
2022-10-31T04:45:55.018Z,10.77
2022-10-31T04:48:43.338Z,10.84
2022-10-31T04:51:33.841Z,10.75
2022-10-31T04:54:21.879Z,10.69
2022-10-31T04:57:12.898Z,10.49
2022-10-31T05:00:00.933Z,10.32
2022-10-31T05:02:57.579Z,10.37
2022-10-31T05:05:46.004Z,10.35
2022-10-31T05:08:34.096Z,10.47
2022-10-31T05:11:22.105Z,10.33
2022-10-31T05:14:10.099Z,10.26
2022-10-31T05:16:58.109Z,10.25
2022-10-31T05:19:46.254Z,10.11
2022-10-31T05:22:34.288Z,10.19
2022-10-31T05:25:27.816Z,10.05
2022-10-31T05:28:15.756Z,10.01
2022-10-31T05:31:04.114Z,10.08
2022-10-31T05:33:52.450Z,10.27
2022-10-31T05:36:40.434Z,10.42
2022-10-31T05:39:28.436Z,10.56
2022-10-31T05:42:16.334Z,10.46
2022-10-31T05:45:04.906Z,10.45
2022-10-31T05:48:01.740Z,10.65
2022-10-31T05:50:51.054Z,10.79
2022-10-31T05:53:39.229Z,10.76
2022-10-31T05:56:27.253Z,10.87
2022-10-31T05:59:15.186Z,11.01
2022-10-31T06:02:03.146Z,11.06
2022-10-31T06:40:25.564Z,11.02
2022-10-31T08:24:12.726Z,19.26
2022-10-31T08:46:31.857Z,18.28
2022-10-31T08:55:32.867Z,16.05
2022-10-31T08:59:02.356Z,15.90
2022-10-31T09:55:50.822Z,23.29
2022-10-31T12:07:34.990Z,26.74
2022-10-31T12:32:24.550Z,27.41
2022-10-31T13:52:59.242Z,22.43
2022-10-31T13:56:15.802Z,22.43
2022-10-31T13:59:34.454Z,22.29
2022-10-31T14:02:45.798Z,22.22
2022-10-31T14:05:56.437Z,22.04
2022-10-31T14:08:56.331Z,21.76
2022-10-31T14:12:40.593Z,21.41
2022-10-31T14:15:41.691Z,21.13
2022-10-31T14:20:25.844Z,20.90
2022-10-31T14:23:58.223Z,20.30
2022-10-31T14:41:16.542Z,20.50
2022-10-31T14:45:13.116Z,22.16
2022-10-31T14:51:14.181Z,21.14
2022-10-31T14:54:19.071Z,22.48
2022-10-31T14:57:59.510Z,23.77
2022-10-31T15:01:19.639Z,24.01
2022-10-31T15:04:37.533Z,23.54
2022-10-31T15:07:32.429Z,23.00
2022-10-31T15:10:43.498Z,22.02
2022-10-31T15:13:40.145Z,21.62
2022-10-31T15:28:35.677Z,19.94
2022-10-31T15:32:20.259Z,19.29
2022-10-31T15:35:27.162Z,18.72
2022-10-31T15:41:33.093Z,18.12
2022-10-31T15:44:31.738Z,18.59
2022-10-31T15:47:34.094Z,18.58
2022-10-31T15:50:48.054Z,18.79
2022-10-31T15:53:50.617Z,18.70
2022-10-31T15:56:39.431Z,18.65
2022-10-31T15:59:58.603Z,17.98
2022-10-31T16:02:46.851Z,18.01
2022-10-31T16:31:35.380Z,16.48
2022-10-31T16:34:33.700Z,16.07
2022-10-31T16:37:37.059Z,15.89
2022-10-31T16:40:26.473Z,15.87
2022-10-31T16:43:22.105Z,15.99
2022-10-31T16:46:38.331Z,16.07
2022-10-31T16:49:33.315Z,15.86
2022-10-31T16:52:21.659Z,16.01
2022-10-31T17:03:53.498Z,15.80
2022-10-31T17:11:22.734Z,15.88
2022-10-31T17:14:19.280Z,15.84
2022-10-31T17:17:09.290Z,15.62
2022-10-31T17:20:04.500Z,15.22
2022-10-31T17:23:24.246Z,15.50
2022-10-31T17:26:17.702Z,15.62
2022-10-31T17:29:19.047Z,15.72
2022-10-31T17:32:17.743Z,15.93
2022-10-31T17:37:49.260Z,15.74
2022-10-31T17:40:42.843Z,15.74
2022-10-31T17:44:07.339Z,15.31
2022-10-31T17:47:04.729Z,15.25
2022-10-31T17:49:55.791Z,15.71
2022-10-31T18:02:48.041Z,15.23
2022-10-31T18:05:39.746Z,14.97
2022-10-31T18:08:36.640Z,15.06
2022-10-31T18:11:29.123Z,14.90
2022-10-31T18:15:08.385Z,15.00
2022-10-31T18:46:24.395Z,15.19
2022-10-31T18:49:24.294Z,15.12
2022-10-31T18:52:51.999Z,14.87
2022-10-31T18:55:50.221Z,14.76
2022-10-31T18:58:45.746Z,14.68
2022-10-31T19:01:49.715Z,14.37
2022-10-31T19:07:36.110Z,14.02
2022-10-31T19:10:47.395Z,13.93
2022-10-31T19:14:17.776Z,13.45
2022-10-31T19:17:10.860Z,13.50
2022-10-31T19:20:26.121Z,13.42
2022-10-31T19:23:18.250Z,13.62
2022-10-31T19:29:50.191Z,13.94
2022-10-31T19:36:14.861Z,13.53
2022-10-31T19:39:15.712Z,13.65
2022-10-31T19:42:12.333Z,13.49
2022-10-31T19:45:10.345Z,13.76
2022-10-31T19:48:18.449Z,13.64
2022-10-31T19:51:25.575Z,13.69
2022-10-31T19:54:13.983Z,13.81
2022-10-31T19:57:06.466Z,13.56
2022-10-31T20:00:08.276Z,13.93
2022-10-31T20:03:06.970Z,13.76
2022-10-31T20:06:07.704Z,14.00
2022-10-31T20:09:07.607Z,14.05
2022-10-31T20:12:02.935Z,14.08
2022-10-31T20:14:56.699Z,13.97
2022-10-31T20:17:51.062Z,13.99
2022-10-31T20:21:03.683Z,13.98
2022-10-31T20:24:16.048Z,13.84
2022-10-31T20:27:11.258Z,13.72
2022-10-31T20:30:04.251Z,13.82
2022-10-31T20:32:54.985Z,13.93
2022-10-31T20:35:44.226Z,13.88
2022-10-31T20:38:39.072Z,13.44
2022-10-31T20:41:29.615Z,13.52
2022-10-31T20:44:26.693Z,13.68
2022-10-31T20:47:20.671Z,13.86
2022-10-31T20:50:17.262Z,14.00
2022-10-31T20:53:20.114Z,14.10
2022-10-31T20:56:19.640Z,14.04
2022-10-31T20:59:15.367Z,13.98
2022-10-31T21:02:10.189Z,13.78
2022-10-31T21:04:58.632Z,13.70
2022-10-31T21:07:47.779Z,13.47
2022-10-31T21:10:36.662Z,13.49
2022-10-31T21:13:32.518Z,13.57
2022-10-31T21:16:31.143Z,13.49
2022-10-31T21:19:31.577Z,13.39
2022-10-31T21:22:19.852Z,13.34
2022-10-31T21:25:08.856Z,13.26
2022-10-31T21:28:00.645Z,13.33
2022-10-31T21:30:51.996Z,13.26
2022-10-31T21:33:44.188Z,13.26
2022-10-31T21:36:36.912Z,13.35
2022-10-31T21:39:25.315Z,13.11
2022-10-31T21:42:18.934Z,13.12
2022-10-31T21:45:12.278Z,13.13
2022-10-31T21:48:03.106Z,13.10
2022-10-31T21:50:51.067Z,13.13
2022-10-31T21:54:01.306Z,13.02
2022-10-31T21:56:49.822Z,13.02
2022-10-31T21:59:45.871Z,12.80
2022-10-31T22:02:43.340Z,12.74
2022-10-31T22:05:31.782Z,12.88
2022-10-31T22:08:20.029Z,12.71
2022-10-31T22:11:13.884Z,12.52
2022-10-31T22:14:03.817Z,12.53
2022-10-31T22:16:52.009Z,12.74
2022-10-31T22:19:40.233Z,12.79
2022-10-31T22:22:28.238Z,12.75
2022-10-31T22:25:16.299Z,12.72
2022-10-31T22:28:08.111Z,12.77
2022-10-31T22:30:58.680Z,12.76
2022-10-31T22:33:48.137Z,12.67
2022-10-31T22:36:37.912Z,12.61
2022-10-31T22:39:25.921Z,12.60
2022-10-31T22:42:14.023Z,12.65
2022-10-31T22:45:02.909Z,12.71
2022-10-31T22:47:51.419Z,12.61
2022-10-31T22:50:39.636Z,12.41
2022-10-31T22:53:27.903Z,12.54
2022-10-31T22:56:20.579Z,12.59
2022-10-31T22:59:12.387Z,12.74
2022-10-31T23:02:00.752Z,12.71
2022-10-31T23:04:49.039Z,12.78
2022-10-31T23:07:37.162Z,12.86
2022-10-31T23:10:33.428Z,12.94
2022-10-31T23:13:43.002Z,12.98
2022-10-31T23:16:31.340Z,13.03
2022-10-31T23:19:33.323Z,13.07
2022-10-31T23:22:24.523Z,13.00
2022-10-31T23:25:12.632Z,12.53
2022-10-31T23:28:00.761Z,12.11
2022-10-31T23:30:49.113Z,12.61
2022-10-31T23:33:37.257Z,12.88
2022-10-31T23:36:28.464Z,12.97
2022-10-31T23:39:19.916Z,13.00
2022-10-31T23:42:11.156Z,12.85
2022-10-31T23:44:59.301Z,12.87
2022-10-31T23:47:47.596Z,12.95
2022-10-31T23:50:37.121Z,12.91
2022-10-31T23:53:25.249Z,12.43
2022-10-31T23:56:14.465Z,12.61
2022-10-31T23:59:03.006Z,12.75
